createdAt,value
2017-05-01T00:01:23.090Z,13.08
2017-05-01T00:03:50.218Z,12.30
2017-05-01T00:06:17.956Z,17.20
2017-05-01T00:08:44.966Z,12.36
2017-05-01T00:11:12.791Z,13.34
2017-05-01T00:13:40.497Z,12.98
2017-05-01T00:16:07.476Z,17.06
2017-05-01T00:18:34.475Z,15.76
2017-05-01T00:21:01.450Z,15.92
2017-05-01T00:23:28.437Z,13.62
2017-05-01T00:25:56.181Z,17.24
2017-05-01T00:28:23.177Z,15.30
2017-05-01T00:30:50.134Z,14.18
2017-05-01T00:33:17.123Z,13.48
2017-05-01T00:35:44.111Z,12.26
2017-05-01T00:38:11.096Z,16.24
2017-05-01T00:40:38.115Z,13.20
2017-05-01T00:43:05.089Z,13.24
2017-05-01T00:45:32.052Z,14.52
2017-05-01T00:47:59.016Z,13.64
2017-05-01T00:50:26.899Z,14.24
2017-05-01T00:52:53.918Z,14.76
2017-05-01T00:55:20.903Z,14.26
2017-05-01T00:57:47.855Z,14.38
2017-05-01T01:00:14.922Z,13.44
2017-05-01T01:02:41.914Z,14.90
2017-05-01T01:05:09.636Z,12.70
2017-05-01T01:07:36.589Z,14.34
2017-05-01T01:10:22.343Z,14.84
2017-05-01T01:12:49.355Z,14.32
2017-05-01T01:15:17.081Z,16.00
2017-05-01T01:17:44.043Z,14.00
2017-05-01T01:20:11.108Z,13.34
2017-05-01T01:22:38.151Z,17.12
2017-05-01T01:25:05.159Z,13.36
2017-05-01T01:27:32.204Z,13.50
2017-05-01T01:29:59.224Z,15.74
2017-05-01T01:32:26.310Z,15.10
2017-05-01T01:34:53.333Z,15.22
2017-05-01T01:37:20.505Z,13.40
2017-05-01T01:39:47.544Z,16.64
2017-05-01T01:42:14.574Z,15.66
2017-05-01T01:44:41.655Z,14.70
2017-05-01T01:47:08.711Z,14.24
2017-05-01T01:49:35.731Z,14.28
2017-05-01T01:52:02.755Z,13.10
2017-05-01T01:54:29.795Z,14.34
2017-05-01T01:56:57.620Z,14.94
2017-05-01T01:59:24.690Z,14.92
2017-05-01T02:01:51.704Z,16.18
2017-05-01T02:04:18.712Z,13.64
2017-05-01T02:06:45.735Z,16.16
2017-05-01T02:09:12.745Z,15.06
2017-05-01T02:11:39.819Z,16.78
2017-05-01T02:14:06.942Z,16.14
2017-05-01T02:16:33.946Z,15.56
2017-05-01T02:19:00.969Z,16.02
2017-05-01T02:21:28.013Z,14.74
2017-05-01T02:23:55.107Z,14.78
2017-05-01T02:26:22.162Z,15.54
2017-05-01T02:28:49.188Z,16.06
2017-05-01T02:31:16.251Z,17.00
2017-05-01T02:33:43.292Z,15.78
2017-05-01T02:36:10.356Z,18.38
2017-05-01T02:38:37.424Z,14.34
2017-05-01T02:41:04.424Z,15.06
2017-05-01T02:43:31.492Z,14.52
2017-05-01T02:45:58.504Z,13.66
2017-05-01T02:48:26.256Z,14.60
2017-05-01T02:50:53.249Z,15.00
2017-05-01T02:53:20.274Z,15.04
2017-05-01T02:55:48.047Z,17.46
2017-05-01T02:58:15.085Z,14.66
2017-05-01T03:00:42.875Z,15.16
2017-05-01T03:03:09.953Z,15.62
2017-05-01T03:05:37.033Z,16.22
2017-05-01T03:08:04.039Z,16.38
2017-05-01T03:10:31.100Z,14.92
2017-05-01T03:12:58.135Z,15.58
2017-05-01T03:15:25.262Z,15.32
2017-05-01T03:17:52.280Z,14.94
2017-05-01T03:20:20.023Z,14.34
2017-05-01T03:22:47.024Z,14.90
2017-05-01T03:25:14.097Z,15.38
2017-05-01T03:27:41.255Z,15.28
2017-05-01T03:30:08.323Z,14.34
2017-05-01T03:32:35.300Z,16.40
2017-05-01T03:35:02.352Z,14.38
2017-05-01T03:37:29.323Z,15.68
2017-05-01T03:39:56.344Z,16.32
2017-05-01T03:42:23.283Z,15.38
2017-05-01T03:44:50.451Z,16.26
2017-05-01T03:47:17.523Z,16.04
2017-05-01T03:49:44.481Z,14.10
2017-05-01T03:52:11.458Z,16.98
2017-05-01T03:54:39.148Z,16.18
2017-05-01T03:57:06.111Z,14.50
2017-05-01T03:59:33.093Z,14.02
2017-05-01T04:02:00.028Z,15.86
2017-05-01T04:04:26.993Z,15.58
2017-05-01T04:06:53.963Z,14.92
2017-05-01T04:09:20.961Z,15.12
2017-05-01T04:11:47.985Z,15.52
2017-05-01T04:14:14.928Z,15.50
2017-05-01T04:16:41.899Z,15.24
2017-05-01T04:19:08.915Z,14.30
2017-05-01T04:21:35.851Z,13.94
2017-05-01T04:24:02.856Z,14.58
2017-05-01T04:26:29.814Z,14.68
2017-05-01T04:28:57.548Z,17.44
2017-05-01T04:31:24.574Z,13.60
2017-05-01T04:33:51.549Z,14.48
2017-05-01T04:36:18.899Z,14.00
2017-05-01T04:38:45.920Z,16.06
2017-05-01T04:41:12.875Z,16.60
2017-05-01T04:43:39.880Z,16.42
2017-05-01T04:46:07.591Z,15.72
2017-05-01T04:48:34.572Z,16.60
2017-05-01T04:51:01.572Z,15.64
2017-05-01T04:53:28.550Z,17.40
2017-05-01T04:55:55.540Z,16.72
2017-05-01T04:58:22.573Z,15.34
2017-05-01T05:00:50.306Z,16.22
2017-05-01T05:03:17.272Z,15.44
2017-05-01T05:05:44.971Z,14.46
2017-05-01T05:08:26.906Z,14.00
2017-05-01T05:10:53.873Z,14.84
2017-05-01T05:13:20.907Z,16.06
2017-05-01T05:15:47.903Z,15.74
2017-05-01T05:18:14.899Z,14.76
2017-05-01T05:20:41.890Z,16.04
2017-05-01T05:23:08.876Z,17.44
2017-05-01T05:25:35.868Z,20.04
2017-05-01T05:28:03.604Z,15.74
2017-05-01T05:30:30.602Z,16.18
2017-05-01T05:32:57.555Z,16.12
2017-05-01T05:35:24.560Z,16.36
2017-05-01T05:37:52.304Z,15.18
2017-05-01T05:40:19.291Z,18.28
2017-05-01T05:42:46.373Z,17.46
2017-05-01T05:45:13.399Z,17.52
2017-05-01T05:47:40.403Z,16.18
2017-05-01T05:50:07.443Z,15.58
2017-05-01T05:52:34.423Z,18.10
2017-05-01T05:55:02.152Z,16.86
2017-05-01T05:57:29.163Z,16.28
2017-05-01T05:59:56.104Z,17.62
2017-05-01T06:02:23.122Z,18.92
2017-05-01T06:04:50.913Z,17.30
2017-05-01T06:07:17.891Z,17.26
2017-05-01T06:09:44.859Z,17.38
2017-05-01T06:12:12.053Z,17.82
2017-05-01T06:14:39.032Z,17.34
2017-05-01T06:17:05.988Z,17.96
2017-05-01T06:19:32.980Z,17.30
2017-05-01T06:22:00.021Z,16.74
2017-05-01T06:24:27.008Z,19.38
2017-05-01T06:26:53.991Z,16.20
2017-05-01T06:29:20.986Z,18.48
2017-05-01T06:31:47.942Z,19.34
2017-05-01T06:34:14.983Z,18.86
2017-05-01T06:36:41.991Z,18.64
2017-05-01T06:39:09.708Z,20.82
2017-05-01T06:41:36.681Z,18.66
2017-05-01T06:44:03.724Z,18.66
2017-05-01T06:46:30.741Z,18.88
2017-05-01T06:48:57.755Z,18.78
2017-05-01T06:51:24.777Z,16.92
2017-05-01T06:53:52.569Z,18.48
2017-05-01T06:56:19.515Z,22.72
2017-05-01T06:58:46.508Z,19.46
2017-05-01T07:01:13.579Z,22.84
2017-05-01T07:03:41.416Z,30.64
2017-05-01T07:06:08.426Z,18.80
2017-05-01T07:08:35.403Z,25.74
2017-05-01T07:11:02.392Z,19.16
2017-05-01T07:13:31.076Z,19.70
2017-05-01T07:15:58.770Z,22.00
2017-05-01T07:18:25.729Z,20.08
2017-05-01T07:20:52.739Z,19.56
2017-05-01T07:23:20.448Z,20.46
2017-05-01T07:25:47.431Z,20.68
2017-05-01T07:28:14.464Z,20.22
2017-05-01T07:30:41.461Z,20.44
2017-05-01T07:33:08.444Z,20.76
2017-05-01T07:35:35.592Z,18.94
2017-05-01T07:38:02.540Z,18.48
2017-05-01T07:40:29.517Z,17.92
2017-05-01T07:42:56.492Z,17.34
2017-05-01T07:45:23.652Z,20.66
2017-05-01T07:47:50.651Z,25.52
2017-05-01T07:50:17.655Z,19.66
2017-05-01T07:52:44.733Z,20.82
2017-05-01T07:55:12.651Z,19.86
2017-05-01T07:57:39.635Z,19.22
2017-05-01T08:00:06.636Z,21.50
2017-05-01T08:02:34.399Z,23.90
2017-05-01T08:05:02.160Z,20.54
2017-05-01T08:07:29.192Z,21.16
2017-05-01T08:09:56.192Z,20.66
2017-05-01T08:12:23.222Z,20.62
2017-05-01T08:14:50.241Z,21.12
2017-05-01T08:17:17.980Z,17.92
2017-05-01T08:19:44.978Z,20.10
2017-05-01T08:22:12.022Z,16.04
2017-05-01T08:24:38.993Z,19.84
2017-05-01T08:27:06.123Z,18.84
2017-05-01T08:29:33.120Z,17.92
2017-05-01T08:32:00.120Z,17.64
2017-05-01T08:34:27.108Z,15.36
2017-05-01T08:36:54.095Z,14.96
2017-05-01T08:39:21.836Z,12.38
2017-05-01T08:41:48.853Z,12.10
2017-05-01T08:44:15.832Z,12.16
2017-05-01T08:46:42.884Z,9.06
2017-05-01T08:49:09.924Z,9.88
2017-05-01T08:51:36.963Z,9.30
2017-05-01T08:54:03.988Z,9.14
2017-05-01T08:56:30.987Z,10.36
2017-05-01T08:58:58.685Z,11.14
2017-05-01T09:01:25.703Z,10.74
2017-05-01T09:03:52.716Z,11.08
2017-05-01T09:06:19.733Z,10.84
2017-05-01T09:08:46.699Z,10.60
2017-05-01T09:11:13.721Z,9.64
2017-05-01T09:13:40.719Z,7.94
2017-05-01T09:16:08.442Z,7.86
2017-05-01T09:18:35.462Z,10.52
2017-05-01T09:21:02.460Z,7.12
2017-05-01T09:23:29.484Z,7.56
2017-05-01T09:25:56.506Z,4.52
2017-05-01T09:28:23.504Z,3.32
2017-05-01T09:30:50.533Z,2.60
2017-05-01T09:33:17.509Z,2.30
2017-05-01T09:35:45.233Z,1.88
2017-05-01T09:38:12.264Z,1.58
2017-05-01T09:40:39.263Z,1.74
2017-05-01T09:43:06.230Z,2.62
2017-05-01T09:45:34.047Z,2.96
2017-05-01T09:48:01.059Z,1.34
2017-05-01T09:50:28.043Z,2.10
2017-05-01T09:52:55.028Z,2.90
2017-05-01T09:55:22.772Z,2.00
2017-05-01T09:57:49.760Z,2.14
2017-05-01T10:00:16.800Z,2.14
2017-05-01T10:02:43.796Z,3.04
2017-05-01T10:05:10.791Z,2.50
2017-05-01T10:07:37.788Z,1.52
2017-05-01T10:10:04.777Z,1.74
2017-05-01T10:12:32.540Z,1.58
2017-05-01T10:15:00.306Z,3.68
2017-05-01T10:17:28.048Z,3.36
2017-05-01T10:19:55.048Z,4.10
2017-05-01T10:22:22.061Z,2.68
2017-05-01T10:24:49.813Z,2.46
2017-05-01T10:27:17.585Z,2.88
2017-05-01T10:29:45.388Z,2.52
2017-05-01T10:32:12.376Z,2.20
2017-05-01T10:34:39.365Z,2.64
2017-05-01T10:37:07.165Z,4.28
2017-05-01T10:39:34.123Z,4.56
2017-05-01T10:42:01.149Z,2.20
2017-05-01T10:44:28.215Z,2.50
2017-05-01T10:46:55.198Z,2.50
2017-05-01T10:49:22.933Z,4.36
2017-05-01T10:51:49.995Z,4.00
2017-05-01T10:54:17.020Z,2.42
2017-05-01T10:56:44.011Z,2.24
2017-05-01T10:59:11.118Z,3.16
2017-05-01T11:01:38.152Z,4.36
2017-05-01T11:04:05.168Z,6.66
2017-05-01T11:06:32.919Z,3.02
2017-05-01T11:08:59.931Z,3.36
2017-05-01T11:11:26.937Z,4.02
2017-05-01T11:13:54.944Z,2.20
2017-05-01T11:16:21.916Z,2.18
2017-05-01T11:18:49.663Z,5.30
2017-05-01T11:21:16.660Z,3.36
2017-05-01T11:23:43.657Z,4.32
2017-05-01T11:26:10.635Z,4.78
2017-05-01T11:28:38.514Z,2.62
2017-05-01T11:31:05.503Z,5.10
2017-05-01T11:33:32.526Z,6.10
2017-05-01T11:35:59.495Z,3.90
2017-05-01T11:38:26.472Z,5.46
2017-05-01T11:40:54.292Z,4.00
2017-05-01T11:43:21.284Z,4.40
2017-05-01T11:45:49.058Z,3.48
2017-05-01T11:48:16.829Z,3.38
2017-05-01T11:50:43.838Z,2.94
2017-05-01T11:53:10.847Z,7.34
2017-05-01T11:55:37.839Z,5.42
2017-05-01T11:58:04.825Z,5.14
2017-05-01T12:00:31.803Z,4.80
2017-05-01T12:02:58.803Z,4.44
2017-05-01T12:05:26.544Z,4.04
2017-05-01T12:07:54.932Z,4.66
2017-05-01T12:10:23.559Z,2.78
2017-05-01T12:12:50.578Z,4.40
2017-05-01T12:15:18.337Z,5.20
2017-05-01T12:17:46.032Z,4.50
2017-05-01T12:20:13.054Z,3.52
2017-05-01T12:22:40.768Z,5.10
2017-05-01T12:25:07.767Z,3.32
2017-05-01T12:27:35.514Z,3.06
2017-05-01T12:30:03.260Z,5.28
2017-05-01T12:32:30.298Z,6.18
2017-05-01T12:34:57.355Z,3.04
2017-05-01T12:37:25.235Z,5.00
2017-05-01T12:39:52.241Z,4.68
2017-05-01T12:42:19.183Z,3.78
2017-05-01T12:44:46.183Z,3.50
2017-05-01T12:47:13.958Z,3.82
2017-05-01T12:49:41.662Z,4.82
2017-05-01T12:52:08.672Z,4.64
2017-05-01T12:54:35.639Z,6.12
2017-05-01T12:57:02.607Z,4.30
2017-05-01T12:59:29.574Z,6.78
2017-05-01T13:01:56.577Z,6.82
2017-05-01T13:04:23.692Z,3.84
2017-05-01T13:06:51.450Z,6.48
2017-05-01T13:09:19.163Z,3.46
2017-05-01T13:11:46.181Z,4.94
2017-05-01T13:14:13.215Z,5.14
2017-05-01T13:16:40.960Z,6.70
2017-05-01T13:19:07.941Z,3.42
2017-05-01T13:21:49.951Z,3.46
2017-05-01T13:24:16.949Z,4.16
2017-05-01T13:26:44.028Z,5.72
2017-05-01T13:29:11.091Z,5.24
2017-05-01T13:31:38.107Z,4.76
2017-05-01T13:34:05.822Z,8.68
2017-05-01T13:36:32.848Z,6.18
2017-05-01T13:38:59.847Z,9.56
2017-05-01T13:41:26.880Z,6.08
2017-05-01T13:43:53.933Z,4.28
2017-05-01T13:46:20.916Z,5.10
2017-05-01T13:48:48.662Z,4.72
2017-05-01T13:51:17.361Z,4.20
2017-05-01T13:53:45.079Z,4.40
2017-05-01T13:56:12.053Z,4.34
2017-05-01T13:58:39.183Z,2.44
2017-05-01T14:01:06.195Z,2.74
2017-05-01T14:03:33.179Z,3.44
2017-05-01T14:06:00.124Z,5.24
2017-05-01T14:08:27.172Z,3.74
2017-05-01T14:10:54.169Z,3.66
2017-05-01T14:13:21.140Z,4.28
2017-05-01T14:16:03.005Z,3.16
2017-05-01T14:18:30.739Z,6.68
2017-05-01T14:20:57.732Z,4.38
2017-05-01T14:23:24.769Z,5.10
2017-05-01T14:25:51.760Z,4.70
2017-05-01T14:28:18.746Z,3.78
2017-05-01T14:30:46.452Z,6.64
2017-05-01T14:33:13.454Z,5.04
2017-05-01T14:35:41.309Z,6.36
2017-05-01T14:38:09.019Z,6.86
2017-05-01T14:40:36.011Z,9.30
2017-05-01T14:43:02.992Z,6.38
2017-05-01T14:45:29.993Z,8.70
2017-05-01T14:47:56.961Z,5.20
2017-05-01T14:50:24.735Z,6.58
2017-05-01T14:52:52.460Z,5.28
2017-05-01T14:55:20.313Z,5.24
2017-05-01T14:57:47.291Z,5.40
2017-05-01T15:00:14.365Z,6.34
2017-05-01T15:02:42.112Z,7.44
2017-05-01T15:05:09.947Z,10.54
2017-05-01T15:07:36.972Z,6.92
2017-05-01T15:10:03.972Z,6.66
2017-05-01T15:12:30.924Z,6.14
2017-05-01T15:14:58.655Z,5.62
2017-05-01T15:17:25.652Z,6.72
2017-05-01T15:19:52.616Z,4.10
2017-05-01T15:22:19.643Z,4.54
2017-05-01T15:24:46.691Z,3.92
2017-05-01T15:27:13.654Z,4.46
2017-05-01T15:29:40.993Z,5.06
2017-05-01T15:32:08.029Z,5.42
2017-05-01T15:34:35.764Z,5.86
2017-05-01T15:37:02.794Z,7.38
2017-05-01T15:39:29.782Z,5.12
2017-05-01T15:41:56.864Z,5.00
2017-05-01T15:44:23.892Z,5.68
2017-05-01T15:46:51.585Z,6.08
2017-05-01T15:49:18.616Z,5.12
2017-05-01T15:51:45.652Z,6.44
2017-05-01T15:54:12.641Z,4.92
2017-05-01T15:56:40.588Z,5.32
2017-05-01T15:59:07.587Z,6.84
2017-05-01T16:01:34.571Z,4.62
2017-05-01T16:04:01.821Z,6.04
2017-05-01T16:06:28.869Z,4.50
2017-05-01T16:08:55.877Z,4.18
2017-05-01T16:11:22.993Z,5.12
2017-05-01T16:13:49.986Z,3.84
2017-05-01T16:16:17.783Z,2.98
2017-05-01T16:18:44.822Z,3.52
2017-05-01T16:21:11.884Z,3.80
2017-05-01T16:23:38.867Z,3.04
2017-05-01T16:26:05.932Z,3.42
2017-05-01T16:28:33.651Z,2.98
2017-05-01T16:31:00.644Z,3.08
2017-05-01T16:33:28.403Z,3.72
2017-05-01T16:35:55.505Z,3.74
2017-05-01T16:38:22.505Z,4.38
2017-05-01T16:40:50.231Z,4.00
2017-05-01T16:43:17.251Z,4.72
2017-05-01T16:45:44.278Z,5.40
2017-05-01T16:48:11.272Z,7.34
2017-05-01T16:50:38.368Z,7.80
2017-05-01T16:53:05.381Z,10.92
2017-05-01T16:55:32.367Z,10.00
2017-05-01T16:57:59.404Z,13.00
2017-05-01T17:00:27.337Z,8.28
2017-05-01T17:02:54.302Z,7.20
2017-05-01T17:05:21.402Z,6.56
2017-05-01T17:07:48.415Z,7.46
2017-05-01T17:10:17.005Z,6.80
2017-05-01T17:12:43.291Z,8.00
2017-05-01T17:15:10.325Z,7.20
2017-05-01T17:17:37.296Z,7.74
2017-05-01T17:20:04.303Z,7.38
2017-05-01T17:22:31.332Z,7.18
2017-05-01T17:24:58.312Z,6.34
2017-05-01T17:27:25.323Z,5.86
2017-05-01T17:29:52.323Z,6.30
2017-05-01T17:32:19.288Z,5.56
2017-05-01T17:34:46.634Z,7.84
2017-05-01T17:37:13.672Z,6.52
2017-05-01T17:39:40.663Z,8.68
2017-05-01T17:42:07.679Z,7.00
2017-05-01T17:44:34.676Z,7.08
2017-05-01T17:47:01.668Z,7.70
2017-05-01T17:49:28.671Z,7.90
2017-05-01T17:51:55.693Z,8.30
2017-05-01T17:54:22.700Z,6.40
2017-05-01T17:56:50.721Z,6.74
2017-05-01T17:59:17.751Z,7.18
2017-05-01T18:01:45.563Z,6.34
2017-05-01T18:04:12.568Z,6.76
2017-05-01T18:06:40.327Z,5.68
2017-05-01T18:09:08.072Z,8.80
2017-05-01T18:11:35.038Z,5.94
2017-05-01T18:14:02.833Z,5.62
2017-05-01T18:16:29.864Z,4.88
2017-05-01T18:18:57.479Z,6.06
2017-05-01T18:21:24.547Z,6.28
2017-05-01T18:23:51.532Z,8.02
2017-05-01T18:26:18.517Z,6.20
2017-05-01T18:28:45.503Z,6.36
2017-05-01T18:31:12.522Z,6.42
2017-05-01T18:33:39.525Z,7.18
2017-05-01T18:36:06.528Z,7.28
2017-05-01T18:38:34.275Z,6.82
2017-05-01T18:41:01.362Z,9.92
2017-05-01T18:43:29.211Z,7.06
2017-05-01T18:45:56.972Z,6.96
2017-05-01T18:48:24.749Z,7.42
2017-05-01T18:50:52.493Z,7.46
2017-05-01T18:53:19.447Z,8.20
2017-05-01T18:55:47.196Z,7.80
2017-05-01T18:58:14.219Z,6.48
2017-05-01T19:00:41.170Z,6.34
2017-05-01T19:03:08.153Z,9.60
2017-05-01T19:05:36.810Z,6.64
2017-05-01T19:08:03.765Z,7.44
2017-05-01T19:10:30.787Z,14.26
2017-05-01T19:12:57.873Z,13.98
2017-05-01T19:15:25.571Z,8.32
2017-05-01T19:17:52.522Z,8.40
2017-05-01T19:20:19.945Z,7.60
2017-05-01T19:22:47.721Z,7.96
2017-05-01T19:25:14.712Z,13.80
2017-05-01T19:27:41.727Z,9.00
2017-05-01T19:30:08.697Z,9.44
2017-05-01T19:32:35.636Z,12.34
2017-05-01T19:35:02.661Z,11.42
2017-05-01T19:37:30.550Z,11.54
2017-05-01T19:39:57.552Z,14.08
2017-05-01T19:42:25.331Z,10.26
2017-05-01T19:44:53.122Z,10.80
2017-05-01T19:47:20.131Z,11.28
2017-05-01T19:49:47.940Z,12.86
2017-05-01T19:52:14.936Z,12.32
2017-05-01T19:54:42.630Z,12.52
2017-05-01T19:57:09.594Z,10.10
2017-05-01T19:59:36.611Z,11.66
2017-05-01T20:02:03.613Z,11.20
2017-05-01T20:04:30.610Z,9.58
2017-05-01T20:06:57.617Z,11.72
2017-05-01T20:09:24.607Z,13.22
2017-05-01T20:11:51.595Z,11.58
2017-05-01T20:14:18.560Z,10.72
2017-05-01T20:16:45.583Z,13.20
2017-05-01T20:19:12.564Z,12.72
2017-05-01T20:21:40.314Z,12.28
2017-05-01T20:24:07.985Z,13.62
2017-05-01T20:26:35.691Z,12.62
2017-05-01T20:29:02.703Z,13.24
2017-05-01T20:31:30.443Z,10.70
2017-05-01T20:33:57.396Z,11.32
2017-05-01T20:36:24.430Z,11.80
2017-05-01T20:38:51.397Z,10.12
2017-05-01T20:41:19.135Z,11.32
2017-05-01T20:43:46.132Z,11.36
2017-05-01T20:46:13.132Z,11.92
2017-05-01T20:48:40.152Z,10.90
2017-05-01T20:51:07.121Z,12.80
2017-05-01T20:53:34.146Z,10.98
2017-05-01T20:56:01.116Z,12.92
2017-05-01T20:58:28.091Z,13.50
2017-05-01T21:00:55.856Z,13.72
2017-05-01T21:03:23.588Z,13.18
2017-05-01T21:05:51.642Z,12.02
2017-05-01T21:08:18.619Z,12.16
2017-05-01T21:10:45.595Z,10.70
2017-05-01T21:13:13.337Z,13.92
2017-05-01T21:15:40.320Z,11.64
2017-05-01T21:18:07.301Z,11.10
2017-05-01T21:20:34.304Z,13.68
2017-05-01T21:23:01.907Z,12.02
2017-05-01T21:25:28.916Z,13.30
2017-05-01T21:27:55.894Z,11.54
2017-05-01T21:30:22.875Z,12.30
2017-05-01T21:32:49.899Z,12.50
2017-05-01T21:35:17.560Z,14.76
2017-05-01T21:37:44.584Z,11.58
2017-05-01T21:40:11.567Z,11.88
2017-05-01T21:42:38.508Z,12.74
2017-05-01T21:45:05.544Z,11.88
2017-05-01T21:47:32.546Z,14.66
2017-05-01T21:49:59.536Z,15.26
2017-05-01T21:52:26.524Z,13.28
2017-05-01T21:54:54.252Z,13.88
2017-05-01T21:57:21.217Z,16.38
2017-05-01T21:59:48.184Z,12.34
2017-05-01T22:02:15.891Z,15.04
2017-05-01T22:04:42.884Z,14.20
2017-05-01T22:07:10.631Z,17.00
2017-05-01T22:09:37.604Z,12.92
2017-05-01T22:12:05.361Z,14.44
2017-05-01T22:14:33.043Z,16.64
2017-05-01T22:17:00.066Z,17.86
2017-05-01T22:19:27.803Z,17.28
2017-05-01T22:21:54.759Z,18.56
2017-05-01T22:24:21.721Z,16.16
2017-05-01T22:26:49.450Z,16.24
2017-05-01T22:29:16.442Z,16.78
2017-05-01T22:31:44.110Z,17.62
2017-05-01T22:34:11.134Z,17.80
2017-05-01T22:36:38.113Z,20.62
2017-05-01T22:39:05.100Z,19.66
2017-05-01T22:41:32.075Z,16.42
2017-05-01T22:43:59.120Z,19.98
2017-05-01T22:46:26.083Z,18.56
2017-05-01T22:48:53.812Z,17.70
2017-05-01T22:51:20.822Z,20.08
2017-05-01T22:53:47.763Z,19.96
2017-05-01T22:56:14.763Z,18.00
2017-05-01T22:58:41.752Z,18.44
2017-05-01T23:01:08.716Z,21.46
2017-05-01T23:03:35.717Z,20.56
2017-05-01T23:06:03.526Z,18.82
2017-05-01T23:08:30.524Z,19.16
2017-05-01T23:10:58.244Z,16.60
2017-05-01T23:13:25.251Z,19.40
2017-05-01T23:15:52.956Z,18.32
2017-05-01T23:18:20.620Z,19.88
2017-05-01T23:20:47.592Z,18.48
2017-05-01T23:23:14.624Z,19.18
2017-05-01T23:25:41.596Z,20.32
2017-05-01T23:28:08.575Z,18.50
2017-05-01T23:30:35.576Z,22.70
2017-05-01T23:33:02.539Z,21.16
2017-05-01T23:35:30.240Z,19.88
2017-05-01T23:37:57.255Z,16.92
2017-05-01T23:40:25.025Z,19.16
2017-05-01T23:42:52.731Z,18.24
2017-05-01T23:45:19.698Z,19.16
2017-05-01T23:47:46.705Z,19.18
2017-05-01T23:50:13.723Z,19.40
2017-05-01T23:52:41.867Z,19.40
2017-05-01T23:55:08.861Z,17.88
2017-05-01T23:57:35.823Z,22.44
